Borkum Airport

EDWR · 下萨克森, 德国

罗盘
风向 的 风向 050° Borkum Airport 5/23
风: 5 kt, 2 beaufort

5 kt

改变
0 1.000 2.000 3.000 4.000 5.000
OVC 400 ft
METAR EDWE 300650Z AUTO 05005KT 4700 OVC004/// 05/04 Q1023

METAR Borkum Airport - EDWR/BMK

Borkum Airport是,德国中的小机场。 该机场有3条跑道: 5/23, 12/30 和 13/31. 该领域的国际民航组织标志是EDWR 它的国际航空运输协会代码是BMK.

这份报告是针对2022年11月30日 07:50, 当地时间在Emden Airport进行的。

机场观察

风向为050°,速度为5 kt。

可见度为4,7 km。

有乌云密布在400 ft的高度。 破损或更高的上限为400 ft。

温度为5 °C,阵风为1 °C。 露点为4 °C,相对湿度为93%。 海平面上的气压为1023 hPa (QNH)。

白天

今天,太阳从08:25升起,在16:18降落。 这适用于Borkum Airport,世界夏令时可能有所不同。 当地时间与世界标准时间之间的时差为+1 小时。 当前,没有夏令时有效。

公司介绍

我们没有关于这个机场的公司信息。

体会

到Vliegles.nl去找飞行课程,跳伞和其他飞行体验。 浏览页面,了解Borkum Airport附近所有可用的活动。 你也可以使用搜索功能来寻找你所在地附近的特定飞行课程、跳伞或其他飞行体验。

跑道

Id 标题 侧风 逆风 侧风 %
5/23 049°-229° 5 kt 2 %
12/30 122°-302° 5 kt 2 kt 95 %
13/31 132°-312° 5 kt 99 %

逆风成分最大的方向会被突出显示,并用于横风计算。 这并不一定意味着这个方向在使用。

乌云

400 ft OVC 乌云密布

温度 & 天气

温度 5 °C
露点 4 °C
相对湿度 93%
风寒 1 °C
Kp-index 2 (0-9)

白天

日出
08:21
中午
12:19
日落
16:17 (6:49)

小工具

你想在你的网站上有一个关于Borkum Airport的当前航空天气(METAR)的小部件吗?

显示HTML代码

我们和第三方通过cookies跟踪您在我们网站上的互联网行为。如果你继续,我们认为你同意我们的饼干政策